METAR Data
IDs: Format: Raw Decoded Include TAF

Data at: 1327 UTC 26 Feb 2021

KI19 261315Z AUTO 11008KT 10SM CLR 00/M04 A3031 RMK AO2 T10041036